Time;durP1;ratioP1;P1;durP2;ratioP2;P2;SDS_P1;SDS_P2;PMS_P1;PMS_P2;Temp;Humidity;BMP_temperature;BMP_pressure;BME280_temperature;BME280_humidity;BME280_pressure;Samples;Min_cycle;Max_cycle;Signal;HPM_P1;HPM_P2
2023/10/18 00:01:26;;;;;;;1.60;1.48;;;;;;;6.05;91.66;98258.22;4109102;28;20234;-48
2023/10/18 00:03:29;;;;;;;1.90;1.80;;;;;;;5.85;92.38;98263.91;4103191;28;20309;-46
2023/10/18 00:05:31;;;;;;;2.00;1.90;;;;;;;5.90;91.80;98255.06;4102705;28;20222;-47
2023/10/18 00:07:34;;;;;;;1.92;1.83;;;;;;;6.12;91.73;98248.13;4121525;28;20237;-47
2023/10/18 00:09:45;;;;;;;1.88;1.77;;;;;;;5.94;91.56;98248.13;4104301;28;20230;-46
2023/10/18 00:11:48;;;;;;;3.83;3.40;;;;;;;5.96;91.60;98246.84;4104083;28;20663;-48
2023/10/18 00:13:50;;;;;;;2.30;2.15;;;;;;;5.90;92.98;98244.22;4119705;28;20309;-47
2023/10/18 00:16:02;;;;;;;2.30;2.10;;;;;;;5.89;92.43;98242.56;4105684;28;20288;-46
2023/10/18 00:18:04;;;;;;;1.67;1.58;;;;;;;5.91;92.41;98240.44;4119159;28;20233;-45
2023/10/18 00:20:13;;;;;;;2.05;1.42;;;;;;;5.76;92.96;98237.25;4119397;28;20206;-46
2023/10/18 00:22:15;;;;;;;2.13;1.95;;;;;;;5.96;92.62;98243.31;4117723;28;20646;-45
2023/10/18 00:24:17;;;;;;;1.70;1.50;;;;;;;5.86;92.39;98237.56;4101890;28;20686;-47
2023/10/18 00:26:19;;;;;;;2.03;1.92;;;;;;;5.97;91.72;98239.53;4118739;28;20210;-46
2023/10/18 00:28:20;;;;;;;1.85;1.75;;;;;;;6.03;91.72;98238.63;4120478;28;20203;-47
2023/10/18 00:30:22;;;;;;;1.88;1.77;;;;;;;6.08;90.98;98230.63;4119498;28;20612;-46
2023/10/18 00:32:26;;;;;;;2.08;1.80;;;;;;;5.95;90.85;98220.75;4135282;28;20213;-46
2023/10/18 00:34:28;;;;;;;2.70;2.30;;;;;;;5.86;91.21;98218.56;4119156;28;20626;-46
2023/10/18 00:36:30;;;;;;;1.92;1.83;;;;;;;5.78;91.64;98216.13;4117603;28;20206;-46
2023/10/18 00:38:32;;;;;;;1.83;1.65;;;;;;;5.72;91.76;98215.16;4119910;28;20217;-46
2023/10/18 00:40:33;;;;;;;2.15;1.95;;;;;;;5.62;92.54;98211.31;4118829;28;20260;-46
2023/10/18 00:42:36;;;;;;;3.63;1.63;;;;;;;5.68;92.67;98213.09;4118652;28;20214;-47
2023/10/18 00:44:38;;;;;;;2.15;1.95;;;;;;;5.68;93.00;98213.09;4108213;28;20206;-46
2023/10/18 00:46:40;;;;;;;2.60;2.40;;;;;;;5.83;92.03;98219.03;4120022;28;20617;-46
2023/10/18 00:48:44;;;;;;;2.08;1.63;;;;;;;5.97;91.65;98215.09;4102304;28;20211;-46
2023/10/18 00:50:51;;;;;;;2.03;1.77;;;;;;;5.65;91.93;98208.16;4118462;28;20206;-47
2023/10/18 00:52:54;;;;;;;3.30;2.25;;;;;;;5.83;92.03;98210.91;4102120;28;20238;-48
2023/10/18 00:54:55;;;;;;;1.70;1.60;;;;;;;5.67;92.73;98204.16;4116364;28;20222;-47
2023/10/18 00:56:58;;;;;;;2.47;2.25;;;;;;;5.78;91.86;98191.69;4102061;28;20211;-47
2023/10/18 00:59:01;;;;;;;1.75;1.65;;;;;;;5.82;91.48;98182.91;4116459;28;20218;-48
2023/10/18 01:01:13;;;;;;;2.25;2.10;;;;;;;5.88;90.76;98189.31;4133219;28;20209;-46
2023/10/18 01:03:28;;;;;;;1.58;1.58;;;;;;;5.76;91.36;98191.09;4117100;28;20229;-47
2023/10/18 01:05:31;;;;;;;1.70;1.60;;;;;;;5.82;91.66;98184.81;4117592;28;20217;-47
2023/10/18 01:07:33;;;;;;;1.75;1.65;;;;;;;5.85;91.46;98187.06;4101800;28;20210;-46
2023/10/18 01:09:35;;;;;;;1.98;1.77;;;;;;;5.81;90.96;98185.84;4116868;28;20249;-46
2023/10/18 01:11:37;;;;;;;10.32;2.10;;;;;;;5.79;91.12;98183.38;4134865;28;20212;-47
2023/10/18 01:13:42;;;;;;;2.33;2.22;;;;;;;5.81;90.84;98188.56;4102872;28;20239;-47
2023/10/18 01:15:44;;;;;;;1.88;1.20;;;;;;;5.79;90.91;98186.09;4118420;28;20297;-45
2023/10/18 01:17:47;;;;;;;1.88;1.73;;;;;;;5.79;90.99;98187.94;4135822;28;20276;-47
2023/10/18 01:19:49;;;;;;;1.60;1.50;;;;;;;5.80;91.05;98184.19;4103639;28;20666;-46
2023/10/18 01:21:51;;;;;;;8.98;2.00;;;;;;;5.75;90.97;98186.75;4102519;28;20285;-46
2023/10/18 01:23:59;;;;;;;3.63;1.27;;;;;;;5.77;91.18;98188.16;4103534;28;21566;-47
2023/10/18 01:26:03;;;;;;;1.73;1.60;;;;;;;5.77;91.32;98184.63;4119992;28;20198;-47
2023/10/18 01:28:07;;;;;;;1.30;1.20;;;;;;;5.74;91.32;98185.91;4102623;28;20211;-47
2023/10/18 01:30:10;;;;;;;1.63;1.55;;;;;;;5.71;90.96;98171.97;4117617;28;20257;-46
2023/10/18 01:32:13;;;;;;;1.40;1.40;;;;;;;5.70;90.93;98179.25;4101015;28;20218;-47
2023/10/18 01:34:15;;;;;;;2.00;1.48;;;;;;;5.79;91.36;98177.06;4105628;28;20265;-46
2023/10/18 01:36:18;;;;;;;1.58;1.48;;;;;;;5.81;91.60;98158.69;4117406;28;20627;-45
2023/10/18 01:38:25;;;;;;;1.40;1.40;;;;;;;5.77;91.23;98157.47;4121336;28;20213;-46
2023/10/18 01:42:32;;;;;;;2.67;2.03;;;;;;;5.76;90.87;98161.25;4104240;28;20211;-46
2023/10/18 01:44:34;;;;;;;1.52;1.42;;;;;;;5.74;91.16;98163.34;4119395;28;20245;-46
2023/10/18 01:46:39;;;;;;;1.83;1.65;;;;;;;5.77;91.43;98162.91;4119246;28;20222;-47
2023/10/18 01:48:41;;;;;;;1.70;1.60;;;;;;;5.73;91.30;98162.53;4100899;28;20223;-47
2023/10/18 01:50:44;;;;;;;1.80;1.70;;;;;;;5.70;91.44;98156.72;4117765;28;20977;-45
2023/10/18 01:52:46;;;;;;;1.50;1.30;;;;;;;5.75;91.68;98160.41;4118061;28;20300;-46
2023/10/18 01:54:47;;;;;;;2.13;1.92;;;;;;;5.79;91.17;98160.78;4119064;28;20201;-47
2023/10/18 01:56:53;;;;;;;1.65;1.55;;;;;;;5.73;92.52;98153.53;4118996;28;20256;-48
2023/10/18 01:58:55;;;;;;;3.35;3.08;;;;;;;5.69;91.76;98157.78;4104311;28;20211;-47
2023/10/18 02:00:57;;;;;;;2.00;1.90;;;;;;;5.68;91.91;98153.41;4101185;28;20207;-46
2023/10/18 02:03:00;;;;;;;1.50;1.48;;;;;;;5.71;92.08;98152.97;4119250;28;20261;-47
2023/10/18 02:05:07;;;;;;;1.98;1.83;;;;;;;5.91;91.48;98159.00;4101424;28;20210;-46
2023/10/18 02:07:08;;;;;;;1.92;1.80;;;;;;;5.63;92.65;98145.13;4102799;28;20300;-46
2023/10/18 02:09:12;;;;;;;1.73;1.38;;;;;;;5.74;92.25;98141.63;4100433;28;20211;-45
2023/10/18 02:11:14;;;;;;;4.57;1.65;;;;;;;5.86;92.03;98145.28;4102395;28;20222;-47
2023/10/18 02:13:16;;;;;;;2.08;1.92;;;;;;;5.74;93.03;98141.63;4099373;28;20247;-46
2023/10/18 02:15:17;;;;;;;1.55;1.50;;;;;;;5.74;93.20;98144.34;4100519;28;20980;-47
2023/10/18 02:17:19;;;;;;;2.28;1.42;;;;;;;5.69;93.28;98144.22;4117938;28;20210;-46
2023/10/18 02:19:21;;;;;;;1.73;1.63;;;;;;;5.53;94.85;98139.41;4098840;28;20250;-46
2023/10/18 02:21:26;;;;;;;1.58;1.52;;;;;;;5.42;95.25;98137.47;4101453;28;20262;-49
2023/10/18 02:23:34;;;;;;;2.47;2.33;;;;;;;5.43;95.96;98139.13;4118239;28;20256;-46
2023/10/18 02:27:45;;;;;;;2.35;2.15;;;;;;;5.44;95.59;98135.34;4104449;28;20575;-46
2023/10/18 02:29:47;;;;;;;1.70;1.50;;;;;;;5.47;95.74;98130.28;4119487;28;20269;-47
2023/10/18 02:31:56;;;;;;;1.80;1.70;;;;;;;5.53;95.11;98128.53;4132656;28;20509;-46
2023/10/18 02:34:00;;;;;;;5.38;2.50;;;;;;;5.35;96.42;98123.16;4102378;28;20265;-46
2023/10/18 02:36:12;;;;;;;3.05;2.53;;;;;;;5.20;97.13;98114.53;4115395;28;20205;-45
2023/10/18 02:38:14;;;;;;;3.70;1.63;;;;;;;5.31;97.29;98113.81;4119469;28;20210;-46
2023/10/18 02:40:29;;;;;;;2.28;2.17;;;;;;;5.33;97.04;98122.53;4133051;28;20201;-45
2023/10/18 02:42:32;;;;;;;2.08;1.85;;;;;;;5.43;96.38;98106.56;4116884;28;20209;-46
2023/10/18 02:44:35;;;;;;;2.78;2.40;;;;;;;5.29;96.81;98113.22;4116295;28;20207;-46
2023/10/18 02:46:37;;;;;;;2.15;1.95;;;;;;;5.36;96.70;98116.66;4133257;28;20224;-46
2023/10/18 02:48:41;;;;;;;1.65;1.55;;;;;;;5.42;95.89;98105.72;4121061;28;20634;-47
2023/10/18 02:50:42;;;;;;;1.48;1.38;;;;;;;5.44;95.86;98102.78;4103531;28;20331;-46
2023/10/18 02:52:47;;;;;;;1.80;1.70;;;;;;;5.39;95.95;98105.34;4117076;28;20237;-45
2023/10/18 02:54:51;;;;;;;1.30;1.30;;;;;;;5.30;96.50;98096.69;4118841;28;20213;-47
2023/10/18 02:56:53;;;;;;;1.65;1.55;;;;;;;5.24;97.95;98099.50;4120428;28;20220;-47
2023/10/18 02:58:58;;;;;;;2.13;2.03;;;;;;;5.22;97.47;98098.91;4101090;28;20722;-46
2023/10/18 03:01:08;;;;;;;4.85;1.63;;;;;;;5.40;96.93;98096.16;4123332;28;20211;-45
2023/10/18 03:03:12;;;;;;;2.58;2.38;;;;;;;5.39;96.22;98089.06;4138508;28;20229;-46
2023/10/18 03:05:13;;;;;;;2.03;1.92;;;;;;;5.49;95.78;98092.09;4122868;28;20216;-46
2023/10/18 03:07:15;;;;;;;2.17;2.08;;;;;;;5.47;95.46;98099.59;4122347;28;20210;-45
2023/10/18 03:09:26;;;;;;;1.70;1.60;;;;;;;5.42;95.99;98099.47;4108157;28;20298;-47
2023/10/18 03:11:31;;;;;;;4.93;1.85;;;;;;;5.51;95.34;98096.25;4123328;28;20290;-47
2023/10/18 03:13:37;;;;;;;2.70;2.50;;;;;;;5.63;94.87;98093.56;4141692;28;20716;-47
2023/10/18 03:15:52;;;;;;;2.85;2.65;;;;;;;5.57;94.82;98086.34;4110149;28;20643;-46
2023/10/18 03:18:03;;;;;;;2.30;2.10;;;;;;;5.20;96.25;98080.13;4111006;28;20218;-46
2023/10/18 03:20:19;;;;;;;2.45;1.90;;;;;;;5.29;96.46;98072.53;4105146;28;20222;-46
2023/10/18 03:22:23;;;;;;;1.67;1.58;;;;;;;5.13;97.93;98076.66;4137667;28;20213;-46
2023/10/18 03:24:24;;;;;;;1.88;1.77;;;;;;;5.21;96.60;98078.22;4118453;28;20286;-46
2023/10/18 03:26:37;;;;;;;2.33;2.13;;;;;;;5.33;96.65;98079.13;4106865;28;20578;-46
2023/10/18 03:28:41;;;;;;;2.05;1.90;;;;;;;5.29;96.39;98069.81;4107180;28;20207;-46
2023/10/18 03:30:45;;;;;;;2.30;2.10;;;;;;;5.31;95.92;98070.41;4103256;28;20237;-47
2023/10/18 03:32:51;;;;;;;1.85;1.70;;;;;;;5.26;96.88;98070.25;4123119;28;20244;-46
2023/10/18 03:34:53;;;;;;;1.65;1.55;;;;;;;5.17;97.81;98063.50;4123751;28;20214;-47
2023/10/18 03:36:55;;;;;;;29.25;2.90;;;;;;;5.05;99.10;98073.44;4105380;28;20740;-45
2023/10/18 03:39:00;;;;;;;3.25;3.15;;;;;;;5.29;97.46;98072.53;4105803;28;20211;-46
2023/10/18 03:41:07;;;;;;;3.35;2.28;;;;;;;5.27;96.90;98063.75;4124046;28;20568;-46
2023/10/18 03:43:09;;;;;;;2.28;2.15;;;;;;;5.43;96.81;98063.16;4120298;28;20268;-46
2023/10/18 03:45:11;;;;;;;1.85;1.75;;;;;;;5.40;95.96;98069.88;4106352;28;20211;-46
2023/10/18 03:47:13;;;;;;;2.05;1.65;;;;;;;5.49;95.63;98067.66;4119265;28;20630;-47
2023/10/18 03:51:53;;;;;;;2.15;2.05;;;;;;;5.03;98.71;98061.16;4108240;28;20202;-48
2023/10/18 03:53:56;;;;;;;2.13;1.63;;;;;;;5.10;99.05;98057.31;4091127;28;20231;-46
2023/10/18 03:55:58;;;;;;;3.92;2.58;;;;;;;5.07;98.92;98062.38;4120100;28;20236;-45
2023/10/18 03:58:01;;;;;;;3.45;3.17;;;;;;;5.05;99.50;98062.59;4103823;28;20212;-48
2023/10/18 04:00:28;;;;;;;2.58;2.38;;;;;;;5.13;99.54;98056.03;4117940;28;20590;-45
2023/10/18 04:02:29;;;;;;;2.85;2.65;;;;;;;5.12;99.42;98055.19;4105765;28;20260;-47
2023/10/18 04:04:37;;;;;;;2.10;1.90;;;;;;;5.07;99.67;98057.75;4118129;28;20209;-46
2023/10/18 04:06:42;;;;;;;2.45;2.25;;;;;;;5.06;99.71;98056.09;4106425;28;20211;-47
2023/10/18 04:08:45;;;;;;;2.15;2.05;;;;;;;5.07;99.52;98056.94;4117827;28;20214;-46
2023/10/18 04:10:59;;;;;;;2.17;2.08;;;;;;;5.10;98.85;98046.47;4135639;28;20244;-46
2023/10/18 04:13:02;;;;;;;2.08;1.98;;;;;;;5.02;99.45;98041.34;4133271;28;20221;-47
2023/10/18 04:15:29;;;;;;;2.10;1.98;;;;;;;5.03;99.85;98040.31;4116796;28;20302;-48
2023/10/18 04:17:37;;;;;;;2.63;2.42;;;;;;;4.82;100.00;98032.63;4119179;28;20202;-46
2023/10/18 04:19:38;;;;;;;2.50;2.30;;;;;;;4.85;100.00;98037.59;4063052;28;1149318;-46
2023/10/18 04:21:40;;;;;;;1.73;1.63;;;;;;;4.95;99.47;98021.63;4085823;28;20274;-46
2023/10/18 04:23:49;;;;;;;2.83;2.63;;;;;;;5.10;99.52;98030.19;4133301;28;20237;-45
2023/10/18 04:26:01;;;;;;;2.50;2.38;;;;;;;5.09;99.07;98023.13;4119587;28;20571;-48
2023/10/18 04:28:04;;;;;;;2.63;2.53;;;;;;;5.06;98.45;98023.56;4119704;28;20668;-45
2023/10/18 04:30:10;;;;;;;2.85;2.65;;;;;;;5.03;97.87;98018.63;4118396;28;20261;-46
2023/10/18 04:32:17;;;;;;;2.22;2.08;;;;;;;5.01;98.67;98015.28;4103027;28;20208;-47
2023/10/18 04:34:21;;;;;;;1.90;1.80;;;;;;;4.81;99.87;98014.69;4134154;28;20636;-47
2023/10/18 04:36:23;;;;;;;3.72;2.55;;;;;;;4.88;99.86;98004.59;4133373;28;20225;-46
2023/10/18 04:38:36;;;;;;;2.55;2.10;;;;;;;4.85;99.39;98005.06;4119088;28;20222;-46
2023/10/18 04:40:43;;;;;;;2.35;2.25;;;;;;;5.03;99.25;98013.19;4120829;28;20206;-45
2023/10/18 04:42:52;;;;;;;2.53;2.35;;;;;;;4.97;98.74;98003.25;4116511;28;20261;-46
2023/10/18 04:44:57;;;;;;;3.63;1.95;;;;;;;5.07;98.28;98003.53;4097870;28;20681;-46
2023/10/18 04:47:01;;;;;;;20.98;3.05;;;;;;;5.14;97.52;97998.84;4115006;28;20211;-47
2023/10/18 04:51:26;;;;;;;1.90;1.80;;;;;;;5.13;96.88;97997.19;4103577;28;20677;-46
2023/10/18 04:53:28;;;;;;;3.35;3.05;;;;;;;5.08;96.39;97988.91;4131710;28;21366;-46
2023/10/18 04:55:32;;;;;;;2.17;2.08;;;;;;;4.93;97.05;97991.19;4102737;28;20206;-46
2023/10/18 04:57:39;;;;;;;3.80;2.42;;;;;;;5.01;97.43;97982.75;4118804;28;20214;-46
2023/10/18 04:59:45;;;;;;;2.83;2.45;;;;;;;5.06;97.13;97982.09;4117755;28;20531;-46
2023/10/18 05:03:59;;;;;;;2.20;1.95;;;;;;;4.91;97.56;97979.75;4104577;28;20301;-47
2023/10/18 05:06:01;;;;;;;2.83;2.60;;;;;;;5.05;97.24;97973.13;4117956;28;20700;-46
2023/10/18 05:08:04;;;;;;;2.13;2.03;;;;;;;5.10;96.26;97965.13;4099711;28;20215;-49
2023/10/18 05:10:14;;;;;;;1.65;1.50;;;;;;;4.99;96.86;97963.19;4118017;28;20210;-46
2023/10/18 05:14:35;;;;;;;4.65;3.20;;;;;;;4.87;98.50;97948.72;4104068;28;20235;-46
2023/10/18 05:16:53;;;;;;;2.40;1.77;;;;;;;4.67;100.00;97937.31;4113450;28;20215;-47
2023/10/18 05:18:55;;;;;;;2.72;2.63;;;;;;;4.72;100.00;97937.47;4119504;28;20218;-45
2023/10/18 05:20:58;;;;;;;3.55;3.25;;;;;;;4.79;100.00;97949.06;4120143;28;20207;-46
2023/10/18 05:22:59;;;;;;;7.57;2.80;;;;;;;4.85;100.00;97948.16;4117119;28;21579;-46
2023/10/18 05:27:27;;;;;;;2.05;1.92;;;;;;;4.84;100.00;97942.94;4103532;28;20641;-47
2023/10/18 05:29:34;;;;;;;3.85;3.00;;;;;;;4.90;100.00;97942.88;4133163;28;20225;-48
2023/10/18 05:32:08;;;;;;;1.80;1.70;;;;;;;4.96;100.00;97947.38;4115671;28;20222;-48
2023/10/18 05:36:29;;;;;;;4.03;3.72;;;;;;;4.94;99.32;97954.91;4104024;28;20729;-48
2023/10/18 05:40:57;;;;;;;11.20;2.92;;;;;;;4.92;97.76;97946.19;4103052;28;20209;-46
2023/10/18 05:43:00;;;;;;;3.22;3.03;;;;;;;4.76;99.61;97946.81;4089419;28;20535;-45
2023/10/18 05:45:02;;;;;;;2.40;2.30;;;;;;;4.82;99.46;97945.91;4118824;28;21351;-46
2023/10/18 05:47:06;;;;;;;3.70;2.75;;;;;;;4.83;99.12;97944.00;4101529;28;20210;-47
2023/10/18 05:49:15;;;;;;;3.28;3.08;;;;;;;4.74;100.00;97953.50;4104303;28;20297;-46
2023/10/18 05:51:37;;;;;;;5.38;2.33;;;;;;;4.77;100.00;97947.63;4101148;28;20619;-46
2023/10/18 05:53:40;;;;;;;3.50;3.20;;;;;;;4.77;100.00;97943.03;4113416;28;20635;-47
2023/10/18 05:55:44;;;;;;;2.65;2.50;;;;;;;4.88;100.00;97936.84;4114362;28;20855;-48
2023/10/18 05:57:46;;;;;;;3.13;2.92;;;;;;;4.83;100.00;97941.28;4105147;28;20767;-46
2023/10/18 05:59:48;;;;;;;3.13;2.90;;;;;;;4.91;100.00;97933.69;4118984;28;20213;-47
2023/10/18 06:01:58;;;;;;;3.40;3.00;;;;;;;4.86;100.00;97930.00;4117903;28;20300;-46
2023/10/18 06:04:01;;;;;;;2.95;2.70;;;;;;;4.92;99.74;97932.63;4102119;28;20557;-45
2023/10/18 06:06:03;;;;;;;2.80;2.67;;;;;;;4.87;99.88;97942.50;4131129;28;20206;-45
2023/10/18 06:08:07;;;;;;;4.20;3.00;;;;;;;4.81;99.74;97943.41;4116946;28;20211;-46
2023/10/18 06:10:16;;;;;;;3.60;2.85;;;;;;;4.78;99.64;97941.13;4102935;28;20565;-47
2023/10/18 06:12:27;;;;;;;2.65;2.47;;;;;;;4.79;100.00;97940.91;4129448;28;20217;-45
2023/10/18 06:14:40;;;;;;;2.60;2.40;;;;;;;4.81;100.00;97938.00;4115350;28;20803;-47
2023/10/18 06:16:42;;;;;;;4.22;3.75;;;;;;;4.88;99.90;97949.56;4101792;28;20655;-47
2023/10/18 06:18:51;;;;;;;3.53;3.33;;;;;;;4.87;99.34;97931.66;4112435;28;21379;-46
2023/10/18 06:20:58;;;;;;;3.05;2.85;;;;;;;4.86;99.61;97930.00;4131341;28;20204;-47
2023/10/18 06:23:08;;;;;;;3.67;3.38;;;;;;;4.99;99.51;97943.41;4116509;28;20723;-45
2023/10/18 06:25:25;;;;;;;3.22;3.00;;;;;;;5.05;99.11;97935.16;4117612;28;20209;-48
2023/10/18 06:27:28;;;;;;;3.50;3.20;;;;;;;5.03;98.79;97937.28;4133107;28;20293;-47
2023/10/18 06:29:35;;;;;;;2.78;2.40;;;;;;;5.00;99.14;97936.91;4117831;28;20218;-48
2023/10/18 06:31:40;;;;;;;2.55;2.35;;;;;;;5.14;99.03;97933.78;4117050;28;20274;-46
2023/10/18 06:33:42;;;;;;;15.90;3.22;;;;;;;5.18;98.92;97934.97;4103219;28;20230;-46
2023/10/18 06:35:53;;;;;;;4.28;2.85;;;;;;;5.15;99.10;97941.69;4102513;28;20724;-47
2023/10/18 06:37:55;;;;;;;2.95;2.70;;;;;;;5.23;98.80;97948.69;4118503;28;20211;-47
2023/10/18 06:40:02;;;;;;;2.97;2.78;;;;;;;5.31;99.08;97948.34;4102469;28;20278;-46
2023/10/18 06:42:07;;;;;;;2.75;2.55;;;;;;;5.15;99.33;97943.59;4120918;28;20202;-46
2023/10/18 06:44:11;;;;;;;2.25;2.10;;;;;;;5.19;99.97;97942.06;4118265;28;20598;-46
2023/10/18 06:46:25;;;;;;;3.78;3.47;;;;;;;5.11;100.00;97934.25;4120385;28;20211;-46
2023/10/18 06:48:30;;;;;;;4.15;3.80;;;;;;;4.96;100.00;97924.84;4133491;28;20230;-52
2023/10/18 06:50:33;;;;;;;3.63;3.08;;;;;;;5.01;100.00;97933.94;4103630;28;20292;-49
2023/10/18 06:52:44;;;;;;;4.43;4.03;;;;;;;5.01;100.00;97933.94;4103954;28;20230;-47
2023/10/18 06:54:46;;;;;;;4.15;3.75;;;;;;;4.87;100.00;97929.75;4131594;28;20205;-47
2023/10/18 06:56:48;;;;;;;3.88;3.60;;;;;;;4.87;100.00;97927.06;4103063;28;20210;-47
2023/10/18 06:58:50;;;;;;;5.88;4.38;;;;;;;4.90;100.00;97926.63;4117788;28;20248;-48
2023/10/18 07:00:55;;;;;;;4.38;4.03;;;;;;;4.88;100.00;97923.28;4104844;28;20213;-48
2023/10/18 07:02:57;;;;;;;8.55;4.13;;;;;;;4.92;100.00;97924.50;4104652;28;20234;-47
2023/10/18 07:05:00;;;;;;;3.60;3.40;;;;;;;5.04;100.00;97922.66;4119702;28;20218;-46
2023/10/18 07:07:19;;;;;;;5.43;4.15;;;;;;;5.07;100.00;97919.47;4103342;28;20305;-48
2023/10/18 07:09:31;;;;;;;2.90;2.70;;;;;;;5.11;100.00;97917.97;4101351;28;20234;-47
2023/10/18 07:11:37;;;;;;;3.63;3.22;;;;;;;5.21;100.00;97907.38;4104004;28;20610;-47
2023/10/18 07:13:54;;;;;;;2.80;2.58;;;;;;;5.34;100.00;97909.91;4103367;28;20230;-49
2023/10/18 07:16:02;;;;;;;3.45;3.15;;;;;;;5.43;100.00;97897.69;4111608;28;20739;-48
2023/10/18 07:18:13;;;;;;;4.63;4.22;;;;;;;5.34;100.00;97901.75;4116590;28;20293;-48
2023/10/18 07:20:15;;;;;;;4.18;3.72;;;;;;;5.42;100.00;97904.16;4104638;28;20278;-47
2023/10/18 07:22:18;;;;;;;4.88;4.57;;;;;;;5.48;100.00;97906.75;4117148;28;20318;-49
2023/10/18 07:24:21;;;;;;;3.45;3.25;;;;;;;5.52;100.00;97907.97;4119845;28;20690;-47
2023/10/18 07:26:24;;;;;;;3.53;3.22;;;;;;;5.60;100.00;97906.78;4118936;28;20276;-47
2023/10/18 07:28:29;;;;;;;6.35;4.43;;;;;;;5.66;100.00;97901.25;4135194;28;20550;-47
2023/10/18 07:30:43;;;;;;;3.20;2.90;;;;;;;5.64;100.00;97902.53;4087180;28;20214;-49
2023/10/18 07:32:48;;;;;;;5.65;3.38;;;;;;;5.75;100.00;97899.03;4119778;28;20965;-48
2023/10/18 07:34:54;;;;;;;3.88;3.35;;;;;;;5.82;100.00;97899.78;4114471;28;20818;-48
2023/10/18 07:36:56;;;;;;;5.72;3.97;;;;;;;5.90;100.00;97889.38;4118374;28;20221;-46
2023/10/18 07:38:58;;;;;;;4.30;3.92;;;;;;;6.06;100.00;97887.84;4100767;28;20907;-46
2023/10/18 07:41:00;;;;;;;4.05;3.58;;;;;;;6.39;100.00;97890.75;4102460;28;20836;-46
2023/10/18 07:43:12;;;;;;;22.27;6.35;;;;;;;6.69;98.23;97870.47;4102630;28;20653;-46
2023/10/18 07:45:14;;;;;;;4.68;4.38;;;;;;;6.93;96.44;97871.22;4121169;28;20213;-45
2023/10/18 07:47:19;;;;;;;4.90;4.53;;;;;;;7.17;95.21;97861.88;4120172;28;20681;-46
2023/10/18 07:49:21;;;;;;;4.97;3.67;;;;;;;7.20;93.22;97862.22;4108037;28;20219;-46
2023/10/18 07:51:31;;;;;;;3.45;3.13;;;;;;;7.77;92.58;97873.81;4121498;28;20328;-46
2023/10/18 07:53:36;;;;;;;3.72;3.25;;;;;;;7.99;90.53;97869.25;4120029;28;20256;-46
2023/10/18 07:55:41;;;;;;;4.18;3.83;;;;;;;7.85;88.49;97867.94;4106766;28;20207;-47
2023/10/18 07:57:46;;;;;;;4.93;4.43;;;;;;;7.73;89.59;97853.59;4121060;28;20217;-45
2023/10/18 07:59:52;;;;;;;4.47;4.07;;;;;;;8.16;89.36;97857.25;4141009;28;20314;-46
2023/10/18 08:04:19;;;;;;;4.30;3.90;;;;;;;7.71;88.38;97858.47;4105803;28;20350;-46
2023/10/18 08:06:33;;;;;;;4.93;4.53;;;;;;;8.14;87.24;97866.75;4138889;28;20274;-45
2023/10/18 08:08:36;;;;;;;3.90;3.45;;;;;;;7.85;87.13;97865.22;4104354;28;20208;-46
2023/10/18 08:10:39;;;;;;;2.92;2.72;;;;;;;7.64;88.02;97857.81;4121876;28;20210;-46
2023/10/18 08:12:41;;;;;;;6.50;3.58;;;;;;;7.65;89.63;97851.28;4105717;28;20234;-47
2023/10/18 08:14:46;;;;;;;6.82;3.65;;;;;;;7.73;89.54;97850.88;4107890;28;20211;-46
2023/10/18 08:16:57;;;;;;;3.78;3.35;;;;;;;7.86;88.40;97850.53;4119478;28;20210;-45
2023/10/18 08:18:59;;;;;;;4.38;3.97;;;;;;;8.15;87.96;97844.72;4105550;28;20218;-45
2023/10/18 08:21:06;;;;;;;11.43;4.47;;;;;;;8.52;86.33;97853.97;4122616;28;20709;-46
2023/10/18 08:23:42;;;;;;;3.35;3.05;;;;;;;8.17;86.82;97847.19;4106434;28;20237;-46
2023/10/18 08:25:37;;;;;;;4.25;3.95;;;;;;;8.60;86.91;97844.50;4104162;28;20210;-46
2023/10/18 08:27:41;;;;;;;3.88;3.58;;;;;;;9.10;85.49;97836.91;4137287;28;20742;-46
2023/10/18 08:30:04;;;;;;;3.78;3.47;;;;;;;9.08;82.50;97839.09;4108656;28;20588;-46
2023/10/18 08:32:15;;;;;;;3.08;2.88;;;;;;;9.01;82.23;97833.00;4119073;28;20250;-46
2023/10/18 08:34:18;;;;;;;3.03;2.83;;;;;;;9.43;82.04;97839.44;4103282;28;20233;-47
2023/10/18 08:36:29;;;;;;;3.67;3.40;;;;;;;9.25;80.14;97834.34;4123253;28;20725;-47
2023/10/18 08:38:32;;;;;;;3.17;2.97;;;;;;;9.39;81.40;97824.63;4108771;28;20237;-46
2023/10/18 08:40:37;;;;;;;3.33;3.03;;;;;;;9.20;80.45;97820.63;4138758;28;20213;-46
2023/10/18 08:42:42;;;;;;;3.00;2.72;;;;;;;9.16;81.72;97819.53;4123120;28;20198;-46
2023/10/18 08:44:45;;;;;;;5.32;3.17;;;;;;;9.76;79.20;97820.03;4121833;28;20916;-47
2023/10/18 08:49:10;;;;;;;3.42;2.97;;;;;;;10.15;78.03;97824.97;4108996;28;20639;-46
2023/10/18 08:51:15;;;;;;;3.92;3.63;;;;;;;10.04;79.67;97817.00;4107451;28;20218;-46
2023/10/18 08:53:22;;;;;;;3.47;3.25;;;;;;;10.42;75.20;97808.47;4138657;28;20241;-46
2023/10/18 08:57:56;;;;;;;3.65;3.45;;;;;;;10.49;75.24;97792.63;4097394;28;20297;-46
2023/10/18 09:00:17;;;;;;;3.00;2.80;;;;;;;10.63;75.09;97777.38;4118123;28;20265;-45
2023/10/18 09:02:22;;;;;;;3.20;2.95;;;;;;;10.94;73.71;97764.31;4106771;28;20739;-46
2023/10/18 09:04:28;;;;;;;4.35;3.75;;;;;;;10.98;74.55;97770.88;4135845;28;20206;-46
2023/10/18 09:06:31;;;;;;;7.20;3.47;;;;;;;11.09;73.45;97764.34;4120790;28;20241;-45
2023/10/18 09:08:42;;;;;;;2.50;2.25;;;;;;;10.68;73.70;97780.94;4102720;28;20210;-45
2023/10/18 09:10:49;;;;;;;2.35;2.15;;;;;;;11.14;73.07;97791.75;4100081;28;20215;-47
2023/10/18 09:14:58;;;;;;;3.15;2.63;;;;;;;10.94;72.11;97777.19;4106352;28;20214;-46
2023/10/18 09:17:02;;;;;;;2.83;2.63;;;;;;;10.93;72.02;97779.13;4106132;28;20238;-47
2023/10/18 09:19:10;;;;;;;3.97;3.58;;;;;;;10.83;73.09;97779.06;4121652;28;20221;-46
2023/10/18 09:23:21;;;;;;;4.40;4.00;;;;;;;10.94;73.00;97780.75;4103158;28;20227;-46
2023/10/18 09:25:24;;;;;;;4.10;3.20;;;;;;;10.92;73.16;97771.16;4086052;28;20295;-46
2023/10/18 09:27:27;;;;;;;3.78;3.47;;;;;;;10.45;75.11;97769.63;4103921;28;20206;-45
2023/10/18 09:29:30;;;;;;;3.25;2.20;;;;;;;10.76;74.46;97760.44;4118748;28;20210;-48
2023/10/18 09:31:31;;;;;;;2.83;2.63;;;;;;;10.54;75.81;97762.56;4120578;28;20298;-45
2023/10/18 09:33:35;;;;;;;2.63;2.42;;;;;;;10.53;75.53;97755.44;4123502;28;20222;-46
2023/10/18 09:35:40;;;;;;;3.80;3.00;;;;;;;10.52;75.60;97751.06;4135177;28;20209;-46
2023/10/18 09:37:41;;;;;;;3.10;2.80;;;;;;;10.51;75.59;97746.69;4103570;28;20270;-46
2023/10/18 09:39:44;;;;;;;2.92;2.72;;;;;;;10.54;76.30;97737.97;4133902;28;20301;-45
2023/10/18 09:41:46;;;;;;;2.08;1.88;;;;;;;10.38;76.21;97738.97;4104500;28;20258;-46
2023/10/18 09:43:49;;;;;;;2.97;2.65;;;;;;;10.21;76.81;97727.44;4120747;28;20231;-46
2023/10/18 09:45:54;;;;;;;2.92;2.72;;;;;;;10.36;77.27;97727.50;4103164;28;20686;-46
2023/10/18 09:47:58;;;;;;;3.38;3.13;;;;;;;11.11;76.06;97740.25;4133656;28;20205;-46
2023/10/18 09:50:07;;;;;;;3.97;3.63;;;;;;;11.19;74.13;97747.94;4119266;28;20288;-45
2023/10/18 09:52:12;;;;;;;3.97;3.63;;;;;;;11.00;73.46;97741.34;4102663;28;20222;-45
2023/10/18 09:54:21;;;;;;;3.17;3.00;;;;;;;10.78;73.40;97732.53;4104419;28;20265;-45
2023/10/18 09:56:33;;;;;;;4.07;3.67;;;;;;;10.60;74.97;97717.69;4119096;28;20221;-46
2023/10/18 09:58:41;;;;;;;3.88;2.50;;;;;;;10.67;75.95;97724.56;4103330;28;20210;-45
2023/10/18 10:00:56;;;;;;;4.50;3.05;;;;;;;10.93;75.63;97724.38;4108068;28;20245;-46
2023/10/18 10:02:59;;;;;;;3.83;3.22;;;;;;;10.82;75.28;97726.53;4088676;28;20740;-45
2023/10/18 10:05:06;;;;;;;3.47;2.95;;;;;;;10.79;75.54;97715.00;4105350;28;20226;-46
2023/10/18 10:09:33;;;;;;;3.60;3.30;;;;;;;10.69;75.87;97708.69;4107095;28;20215;-46
2023/10/18 10:11:37;;;;;;;11.05;3.20;;;;;;;10.75;76.03;97704.09;4119032;28;20206;-47
2023/10/18 10:13:44;;;;;;;3.53;3.30;;;;;;;10.78;75.54;97707.09;4117806;28;20222;-45
2023/10/18 10:15:56;;;;;;;3.22;2.92;;;;;;;11.00;75.27;97705.75;4121044;28;20206;-45
2023/10/18 10:18:00;;;;;;;5.43;3.42;;;;;;;10.70;74.91;97706.78;4116403;28;20289;-47
2023/10/18 10:20:14;;;;;;;3.75;2.95;;;;;;;10.72;75.27;97715.56;4100623;28;20473;-46
2023/10/18 10:22:17;;;;;;;2.63;2.42;;;;;;;10.74;75.77;97707.91;4117292;28;20202;-45
2023/10/18 10:24:32;;;;;;;2.83;2.60;;;;;;;10.57;75.16;97707.31;4104775;28;20309;-48
2023/10/18 10:26:40;;;;;;;3.25;3.00;;;;;;;10.36;76.87;97700.16;4104861;28;20247;-46
2023/10/18 10:31:21;;;;;;;4.10;3.70;;;;;;;10.53;76.74;97690.63;4104647;28;20203;-45
2023/10/18 10:33:23;;;;;;;3.85;3.20;;;;;;;10.60;76.65;97684.88;4108172;28;20245;-48